Ozawkie, Kansas
Current Conditions -  °F | °C
As of 3:52 AM on Monday 22 Dec 2014 (Local Time) from KLWC Reporting Station
Haze Haze  
Wind Chill: 37°   Ceiling: 700
Heat Index: 42°   Visibility: 3mi
Dew Point: 40°   Wind: 8mph
Humidity: 92%   Direction: 140°SE
Pressure: 29.64"   Gusts: NA
Location:  39.23°N, 95.47°W
Report Text: KLWC 220952Z AUTO 14007KT 3SM BR OVC007 06/04 A2964 RMK AO2 SLP038 T00560044
Loading
Personal Weather Stations






























Interactive Weather Map New forecast layout! Learn more

10-Day Weather Forecast

Advertisements
Track Severe Weather on mobile